This is the latest recevied weather packets stored in our database for station/object DB0ADS-6. If no packets are shown the sender has not sent any weather packets the latest 10 day(s).
| Time | Temp. | Humidity | Pressure | Rain* | Wind** | Luminosity | Snow |
|---|---|---|---|---|---|---|---|
| 1777867516 | 11.67° C | 63% | 1012.6 hPa | 0 mm | - | - | - |
| 1777867275 | 11.67° C | 62% | 1012.6 hPa | 0 mm | - | - | - |
| 1777866973 | 11.11° C | 64% | 1012.6 hPa | 0 mm | - | - | - |
| 1777866671 | 11.11° C | 63% | 1012.5 hPa | 0 mm | - | - | - |
| 1777865766 | 11.67° C | 62% | 1012.7 hPa | 0 mm | - | - | - |
| 1777865465 | 11.67° C | 61% | 1012.7 hPa | 0 mm | - | - | - |
| 1777862749 | 12.78° C | 59% | 1012.7 hPa | 0 mm | - | - | - |
| 1777847422 | 16.11° C | 49% | 1012.7 hPa | 0 mm | - | - | - |
| 1777847121 | 16.67° C | 48% | 1012.6 hPa | 0 mm | - | - | - |
| 1777846275 | 16.67° C | 48% | 1012.2 hPa | 0 mm | - | - | - |
| 1777845973 | 17.22° C | 47% | 1012 hPa | 0 mm | - | - | - |
| 1777845389 | 17.22° C | 46% | 1012.4 hPa | 0 mm | - | - | - |
| 1777844767 | 17.22° C | 46% | 1012.4 hPa | 0 mm | - | - | - |
| 1777844162 | 17.22° C | 45% | 1012.3 hPa | 0 mm | - | - | - |
| 1777843861 | 17.78° C | 46% | 1012.3 hPa | 0 mm | - | - | - |
| 1777843559 | 17.78° C | 46% | 1012.1 hPa | 0 mm | - | - | - |
| 1777843258 | 17.78° C | 46% | 1012.1 hPa | 0 mm | - | - | - |
| 1777842956 | 17.78° C | 46% | 1012 hPa | 0 mm | - | - | - |
| 1777842654 | 17.78° C | 45% | 1012 hPa | 0 mm | - | - | - |
| 1777842352 | 17.78° C | 46% | 1011.9 hPa | 0 mm | - | - | - |
| 1777842071 | 18.33° C | 45% | 1011.9 hPa | 0 mm | - | - | - |
| 1777841749 | 17.78° C | 46% | 1011.8 hPa | 0 mm | - | - | - |
| 1777841447 | 17.78° C | 47% | 1011.7 hPa | 0 mm | - | - | - |
| 1777840542 | 18.33° C | 46% | 1011.5 hPa | 0 mm | - | - | - |
| 1777839938 | 18.33° C | 46% | 1011.5 hPa | 0 mm | - | - | - |
* Rain latest hour (hover to see other rain measurements)
** Current wind speed in m/s (hover to see current wind gust speed)